EBCI/CRL METAR and TAF weather

Enter ICAO airport designator
Station Type Date Time Source
EBCI METAR 2022/12/04 11:50 UTC NOAA

EBCI 041150Z 05009KT 9999 BKN010 00/M02 Q1014 NOSIG


Station Type Date Time Source
EBCI Decoded METAR 2022/12/04 11:50 UTC NOAA

Charleroi / Gosselies, Belgium (EBCI) 50-28N 004-27E 192M
Dec 04, 2022 - 06:50 AM EST / 2022.12.04 1150 UTC
Wind: from the NE (050 degrees) at 10 MPH (9 KT):0
Visibility: greater than 7 mile(s):0
Sky conditions: mostly cloudy
Temperature: 32 F (0 C)
Windchill: 23 F (-5 C):1
Dew Point: 28 F (-2 C)
Relative Humidity: 86%
Pressure (altimeter): 29.94 in. Hg (1014 hPa)
ob: EBCI 041150Z 05009KT 9999 BKN010 00/M02 Q1014 NOSIG
cycle: 12

Station Type Date Time Source
EBCI TAF 2022/12/04 12:27 UTC NOAA

TAF EBCI 041106Z 0412/0518 05006KT 9999 BKN012
TEMPO 0420/0518 4000 -SN BKN005 PROB40 0500/0518 0800 -SN FG OVC002

Example: see airport list